Time;durP1;ratioP1;P1;durP2;ratioP2;P2;SDS_P1;SDS_P2;PMS_P1;PMS_P2;Temp;Humidity;BMP_temperature;BMP_pressure;BME280_temperature;BME280_humidity;BME280_pressure;Samples;Min_cycle;Max_cycle;Signal;HPM_P1;HPM_P2
2021/06/14 00:01:08;;;;;;;11.90;4.45;;;;;;;15.85;62.14;100974.84;5035420;28;20049;-78
2021/06/14 00:03:35;;;;;;;9.57;4.10;;;;;;;15.88;62.49;100980.88;5035523;28;20045;-77
2021/06/14 00:06:02;;;;;;;11.13;4.10;;;;;;;15.93;62.22;100982.38;5035510;28;20407;-78
2021/06/14 00:08:29;;;;;;;6.78;4.15;;;;;;;15.84;62.37;100976.66;5035162;28;20045;-74
2021/06/14 00:10:57;;;;;;;8.05;4.25;;;;;;;15.80;62.49;100980.53;5035234;28;20111;-77
2021/06/14 00:13:28;;;;;;;7.65;4.40;;;;;;;15.69;63.04;100983.13;5035249;28;20050;-75
2021/06/14 00:15:55;;;;;;;9.07;4.57;;;;;;;15.65;63.10;100973.53;5034992;28;20053;-75
2021/06/14 00:18:21;;;;;;;15.23;5.03;;;;;;;15.56;63.36;100967.81;5035392;28;20050;-74
2021/06/14 00:20:52;;;;;;;11.90;4.90;;;;;;;15.59;63.53;100974.81;5018013;28;20137;-76
2021/06/14 00:23:21;;;;;;;9.98;4.45;;;;;;;15.44;63.70;100950.72;5015608;28;20062;-77
2021/06/14 00:25:48;;;;;;;11.35;4.80;;;;;;;15.49;63.75;100963.84;4998330;28;20053;-75
2021/06/14 00:28:17;;;;;;;13.18;4.75;;;;;;;15.44;63.54;100955.22;5014235;28;20057;-79
2021/06/14 00:30:45;;;;;;;9.60;4.15;;;;;;;15.45;63.96;100956.94;5015567;28;20115;-75
2021/06/14 00:33:14;;;;;;;8.55;4.35;;;;;;;15.41;64.15;100971.56;5015428;28;20115;-78
2021/06/14 00:35:44;;;;;;;9.65;4.85;;;;;;;15.33;64.19;100970.28;5015122;28;20115;-79
2021/06/14 00:38:12;;;;;;;9.45;4.60;;;;;;;15.33;64.37;100959.53;5015292;28;20403;-77
2021/06/14 00:40:39;;;;;;;10.73;4.55;;;;;;;15.23;64.51;100936.91;5015033;28;20428;-77
2021/06/14 00:43:07;;;;;;;9.82;4.72;;;;;;;15.21;64.79;100944.22;5015159;28;20512;-78
2021/06/14 00:45:36;;;;;;;10.02;4.57;;;;;;;15.23;64.85;100939.59;5015285;28;20108;-78
2021/06/14 00:48:04;;;;;;;9.15;4.90;;;;;;;15.14;65.07;100942.91;5015008;28;20050;-78
2021/06/14 00:50:37;;;;;;;15.65;5.30;;;;;;;15.15;65.19;100941.94;5015129;28;20123;-78
2021/06/14 00:53:11;;;;;;;15.70;4.95;;;;;;;15.14;65.28;100932.16;5014943;28;20702;-78
2021/06/14 00:55:38;;;;;;;8.38;4.80;;;;;;;15.10;65.62;100936.00;5015240;28;20423;-75
2021/06/14 00:58:05;;;;;;;14.30;4.82;;;;;;;15.05;65.71;100933.63;5018577;28;20100;-75
2021/06/14 01:00:32;;;;;;;11.90;5.15;;;;;;;15.04;66.21;100929.22;5019114;28;20054;-77
2021/06/14 01:02:59;;;;;;;15.35;5.53;;;;;;;15.02;66.06;100921.25;5018958;28;20456;-76
2021/06/14 01:05:29;;;;;;;16.50;5.50;;;;;;;15.11;64.99;100926.97;5019231;28;20054;-78
2021/06/14 01:07:55;;;;;;;12.57;5.83;;;;;;;15.09;65.28;100923.53;5019144;28;20054;-77
2021/06/14 01:10:23;;;;;;;13.32;5.43;;;;;;;14.92;65.88;100904.91;5018146;28;20309;-78
2021/06/14 01:13:10;;;;;;;11.57;5.43;;;;;;;14.93;65.67;100898.53;5019211;28;20049;-76
2021/06/14 01:16:10;;;;;;;11.18;5.13;;;;;;;14.92;66.08;100909.41;5018864;28;20050;-78
2021/06/14 01:18:47;;;;;;;9.90;4.93;;;;;;;14.83;65.76;100905.53;5018999;28;20046;-76
2021/06/14 01:21:27;;;;;;;12.48;5.63;;;;;;;14.97;65.91;100896.50;5018662;28;20058;-76
2021/06/14 01:24:30;;;;;;;17.10;5.47;;;;;;;15.04;65.21;100900.50;5017966;28;20061;-76
2021/06/14 01:27:06;;;;;;;13.27;5.45;;;;;;;15.25;62.94;100897.31;5017414;28;20351;-77
2021/06/14 01:29:34;;;;;;;14.90;5.78;;;;;;;15.33;62.33;100894.09;5018574;28;20046;-76
2021/06/14 01:32:01;;;;;;;13.40;4.93;;;;;;;15.41;61.84;100893.56;5018309;28;20062;-78
2021/06/14 01:34:31;;;;;;;13.70;5.95;;;;;;;15.40;61.53;100883.75;5001375;28;20050;-75
2021/06/14 01:37:00;;;;;;;14.05;5.45;;;;;;;15.59;60.10;100886.88;5018435;28;20096;-76
2021/06/14 01:39:30;;;;;;;16.35;6.25;;;;;;;15.66;60.71;100886.44;5017095;28;20431;-75
2021/06/14 01:41:57;;;;;;;19.17;6.03;;;;;;;15.52;60.82;100861.38;5018309;28;20050;-75
2021/06/14 01:44:27;;;;;;;14.10;5.43;;;;;;;15.48;61.72;100855.34;5017353;28;20053;-75
2021/06/14 01:46:57;;;;;;;14.37;6.03;;;;;;;15.46;62.49;100884.19;5016888;28;20481;-75
2021/06/14 01:49:26;;;;;;;11.48;6.00;;;;;;;15.44;63.12;100882.59;5033607;28;20061;-75
2021/06/14 01:51:53;;;;;;;13.05;5.63;;;;;;;15.29;63.44;100863.88;5016674;28;20053;-75
2021/06/14 01:54:20;;;;;;;13.75;5.82;;;;;;;15.22;63.57;100867.94;5016911;28;20427;-76
2021/06/14 01:56:50;;;;;;;14.85;6.63;;;;;;;15.03;64.43;100861.16;5017804;28;20053;-74
2021/06/14 01:59:23;;;;;;;11.57;5.90;;;;;;;14.99;64.45;100859.63;5017862;28;20428;-74
2021/06/14 02:01:52;;;;;;;15.23;5.75;;;;;;;15.00;64.26;100861.38;5017955;28;20050;-77
2021/06/14 02:04:19;;;;;;;14.65;5.72;;;;;;;15.05;64.62;100866.44;5017772;28;20145;-77
2021/06/14 02:06:48;;;;;;;14.80;5.70;;;;;;;14.97;64.51;100866.09;5017944;28;20062;-76
2021/06/14 02:09:18;;;;;;;18.60;7.15;;;;;;;14.88;64.96;100867.59;5016780;28;20092;-75
2021/06/14 02:11:49;;;;;;;15.10;6.32;;;;;;;14.81;65.01;100861.75;5017748;28;20156;-76
2021/06/14 02:14:23;;;;;;;16.75;7.05;;;;;;;14.80;64.85;100858.22;5017951;28;20128;-75
2021/06/14 02:16:51;;;;;;;15.98;5.80;;;;;;;14.78;65.02;100845.84;5017866;28;20061;-76
2021/06/14 02:19:18;;;;;;;16.88;6.53;;;;;;;14.63;65.60;100842.34;5022996;28;20355;-78
2021/06/14 02:21:46;;;;;;;19.15;6.78;;;;;;;14.66;66.01;100851.03;5036561;28;20104;-76
2021/06/14 02:24:14;;;;;;;15.13;6.00;;;;;;;14.66;66.00;100858.25;5036957;28;20443;-76
2021/06/14 02:26:43;;;;;;;17.00;6.88;;;;;;;14.56;66.42;100851.78;5037153;28;20390;-77
2021/06/14 02:29:10;;;;;;;12.35;5.65;;;;;;;14.44;66.82;100856.97;5037606;28;20096;-75
2021/06/14 02:31:37;;;;;;;15.48;6.82;;;;;;;14.40;66.98;100848.28;5036090;28;20057;-76
2021/06/14 02:34:08;;;;;;;13.95;6.43;;;;;;;14.39;67.11;100856.44;5036836;28;20470;-75
2021/06/14 02:36:35;;;;;;;;;;;;;;;14.38;67.05;100838.59;5037538;28;20053;-78
2021/06/14 02:39:08;;;;;;;12.25;5.97;;;;;;;14.41;66.78;100838.41;5036785;28;19967;-77
2021/06/14 02:41:35;;;;;;;20.30;7.15;;;;;;;14.28;67.46;100838.38;5036812;28;20054;-77
2021/06/14 02:44:05;;;;;;;13.57;5.95;;;;;;;14.34;67.04;100835.25;5036957;28;20049;-74
2021/06/14 02:46:35;;;;;;;19.47;6.50;;;;;;;14.21;67.46;100821.78;5036990;28;20061;-75
2021/06/14 02:49:03;;;;;;;13.57;6.00;;;;;;;14.17;67.90;100833.66;5036696;28;20297;-77
2021/06/14 02:51:32;;;;;;;12.88;6.57;;;;;;;14.10;68.22;100835.91;5035569;28;20427;-75
2021/06/14 02:54:04;;;;;;;14.70;5.75;;;;;;;14.18;68.06;100838.09;5036408;28;20049;-76
2021/06/14 02:56:36;;;;;;;12.90;6.25;;;;;;;14.09;68.66;100836.00;5036717;28;20096;-77
2021/06/14 02:59:06;;;;;;;12.85;6.32;;;;;;;14.05;68.65;100834.50;5036617;28;20110;-75
2021/06/14 03:01:34;;;;;;;14.52;6.35;;;;;;;13.95;68.75;100827.03;5036944;28;20049;-75
2021/06/14 03:04:04;;;;;;;15.07;7.00;;;;;;;13.89;69.45;100845.34;5036303;28;20049;-76
2021/06/14 03:06:32;;;;;;;18.60;6.72;;;;;;;13.90;69.49;100839.03;5036577;28;20061;-77
2021/06/14 03:09:02;;;;;;;14.95;5.95;;;;;;;13.89;69.34;100834.63;5036083;28;20053;-76
2021/06/14 03:11:29;;;;;;;15.23;6.95;;;;;;;13.84;69.81;100826.88;5035391;28;20057;-76
2021/06/14 03:13:57;;;;;;;15.23;7.03;;;;;;;13.85;70.08;100821.38;5036488;28;20053;-74
2021/06/14 03:16:26;;;;;;;14.60;7.05;;;;;;;13.78;70.23;100827.28;5036158;28;20393;-77
2021/06/14 03:18:54;;;;;;;14.35;6.90;;;;;;;13.79;70.40;100829.00;5034543;28;20064;-78
2021/06/14 03:21:22;;;;;;;13.65;6.13;;;;;;;13.64;70.48;100812.91;5016080;28;20050;-77
2021/06/14 03:23:51;;;;;;;16.70;6.82;;;;;;;13.73;70.77;100832.06;5016316;28;20053;-76
2021/06/14 03:26:19;;;;;;;12.95;6.28;;;;;;;13.55;70.90;100818.84;5016059;28;20431;-75
2021/06/14 03:28:47;;;;;;;11.45;6.07;;;;;;;13.60;70.95;100815.88;5016406;28;20050;-78
2021/06/14 03:31:16;;;;;;;16.05;6.28;;;;;;;13.60;71.15;100816.75;5016107;28;20129;-77
2021/06/14 03:33:46;;;;;;;16.05;7.20;;;;;;;13.54;71.36;100819.81;5015986;28;20072;-78
2021/06/14 03:36:15;;;;;;;14.90;6.22;;;;;;;13.49;71.64;100821.91;5016450;28;20119;-77
2021/06/14 03:38:50;;;;;;;15.50;7.00;;;;;;;13.52;71.53;100813.69;5016191;28;20064;-77
2021/06/14 03:41:19;;;;;;;18.33;6.97;;;;;;;13.49;71.88;100813.88;5015820;28;20112;-77
2021/06/14 03:43:46;;;;;;;11.65;6.95;;;;;;;13.51;71.45;100812.81;5015923;28;20054;-78
2021/06/14 03:46:13;;;;;;;15.25;6.75;;;;;;;13.48;71.78;100804.97;4998748;28;20050;-76
2021/06/14 03:48:40;;;;;;;12.68;6.00;;;;;;;13.44;71.83;100792.66;5014678;28;20058;-75
2021/06/14 03:51:07;;;;;;;16.05;7.05;;;;;;;13.47;71.96;100802.38;5014962;28;20046;-77
2021/06/14 03:53:34;;;;;;;14.07;6.75;;;;;;;13.37;72.07;100786.84;5015624;28;20399;-76
2021/06/14 03:56:07;;;;;;;17.77;6.55;;;;;;;13.38;72.30;100796.63;5015695;28;20054;-75
2021/06/14 03:58:35;;;;;;;14.63;6.32;;;;;;;13.36;72.39;100803.03;5015659;28;20108;-75
2021/06/14 04:01:03;;;;;;;18.98;6.80;;;;;;;13.35;72.56;100796.78;5014863;28;20386;-75
2021/06/14 04:03:30;;;;;;;15.25;6.75;;;;;;;13.35;72.39;100775.34;5015883;28;20053;-76
2021/06/14 04:06:00;;;;;;;11.98;6.18;;;;;;;13.48;72.24;100796.94;5015506;28;20394;-76
2021/06/14 04:08:27;;;;;;;18.60;6.57;;;;;;;13.54;72.27;100807.28;5016110;28;20062;-75
2021/06/14 04:10:54;;;;;;;14.95;6.50;;;;;;;13.50;72.33;100803.06;5015640;28;20299;-76
2021/06/14 04:13:20;;;;;;;10.90;5.88;;;;;;;13.49;72.73;100814.75;5014629;28;20104;-75
2021/06/14 04:15:47;;;;;;;17.77;6.72;;;;;;;13.49;72.92;100800.44;5015332;28;20074;-74
2021/06/14 04:18:14;;;;;;;11.15;6.28;;;;;;;13.54;73.15;100814.44;5015825;28;20057;-74
2021/06/14 04:20:41;;;;;;;17.92;6.35;;;;;;;13.61;73.11;100810.41;5030604;28;20098;-75
2021/06/14 04:23:08;;;;;;;13.88;6.13;;;;;;;13.64;72.89;100807.56;5034456;28;20053;-75
2021/06/14 04:25:34;;;;;;;14.20;6.25;;;;;;;13.66;72.68;100797.56;5035070;28;20394;-75
2021/06/14 04:28:03;;;;;;;12.57;6.45;;;;;;;13.78;72.54;100800.44;5035364;28;20103;-78
2021/06/14 04:30:29;;;;;;;14.95;5.78;;;;;;;13.74;72.62;100790.84;5034064;28;20049;-76
2021/06/14 04:32:56;;;;;;;12.85;6.90;;;;;;;13.85;72.84;100799.09;5033480;28;20096;-76
2021/06/14 04:35:23;;;;;;;11.75;5.95;;;;;;;13.89;72.92;100797.06;5033960;28;20045;-78
2021/06/14 04:37:50;;;;;;;15.05;5.97;;;;;;;13.94;72.67;100806.53;5035320;28;20049;-78
2021/06/14 04:40:17;;;;;;;13.40;6.68;;;;;;;13.98;73.10;100804.50;5034687;28;20053;-77
2021/06/14 04:42:44;;;;;;;13.48;6.18;;;;;;;13.82;73.20;100775.13;5034870;28;20083;-74
2021/06/14 04:45:13;;;;;;;19.70;6.75;;;;;;;14.10;72.96;100797.47;5035116;28;20050;-77
2021/06/14 04:47:40;;;;;;;14.52;6.32;;;;;;;14.13;73.15;100800.81;5035132;28;20359;-78
2021/06/14 04:50:07;;;;;;;13.52;6.65;;;;;;;14.13;73.50;100794.59;5034850;28;20103;-76
2021/06/14 04:52:34;;;;;;;18.95;7.35;;;;;;;14.26;73.11;100798.19;5033810;28;20083;-75
2021/06/14 04:55:00;;;;;;;14.95;6.60;;;;;;;14.32;73.26;100806.81;5034584;28;20109;-78
2021/06/14 04:57:27;;;;;;;14.75;5.95;;;;;;;14.29;73.46;100796.25;5034844;28;20439;-79
2021/06/14 04:59:54;;;;;;;14.93;6.90;;;;;;;14.34;73.73;100794.97;5033847;28;20045;-77
2021/06/14 05:02:20;;;;;;;15.40;6.93;;;;;;;14.38;73.61;100790.25;5034785;28;20383;-78
2021/06/14 05:04:47;;;;;;;11.82;6.05;;;;;;;14.49;73.42;100795.78;5034726;28;20076;-76
2021/06/14 05:07:14;;;;;;;14.43;6.85;;;;;;;14.56;73.29;100798.03;5035045;28;20050;-78
2021/06/14 05:09:40;;;;;;;11.18;6.47;;;;;;;14.65;72.80;100787.53;5034585;28;20100;-78
2021/06/14 05:12:08;;;;;;;13.13;6.70;;;;;;;14.65;73.22;100800.09;5034769;28;20049;-75
2021/06/14 05:14:35;;;;;;;10.35;6.10;;;;;;;14.72;73.20;100796.06;5033806;28;20100;-77
2021/06/14 05:17:01;;;;;;;12.90;6.68;;;;;;;14.84;72.85;100798.88;5034732;28;20355;-75
2021/06/14 05:19:28;;;;;;;16.55;7.30;;;;;;;14.90;72.42;100799.31;5028516;28;20057;-77
2021/06/14 05:21:55;;;;;;;17.88;7.50;;;;;;;14.96;72.13;100794.47;5013715;28;20054;-78
2021/06/14 05:24:22;;;;;;;21.90;7.10;;;;;;;15.02;72.59;100805.66;5014033;28;20061;-75
2021/06/14 05:26:48;;;;;;;15.98;7.10;;;;;;;14.99;72.45;100795.13;5014085;28;20053;-76
2021/06/14 05:29:15;;;;;;;11.40;6.30;;;;;;;15.10;72.96;100802.47;5015148;28;20050;-75
2021/06/14 05:31:42;;;;;;;14.15;6.88;;;;;;;15.12;72.39;100799.63;5014062;28;20112;-74
2021/06/14 05:34:08;;;;;;;15.43;6.93;;;;;;;15.24;72.20;100806.84;5014360;28;20050;-75
2021/06/14 05:36:35;;;;;;;19.70;7.22;;;;;;;15.31;71.89;100807.28;5013810;28;20061;-75
2021/06/14 05:39:02;;;;;;;18.40;7.80;;;;;;;15.40;71.80;100803.06;5014541;28;20100;-75
2021/06/14 05:41:29;;;;;;;22.92;7.18;;;;;;;15.47;70.76;100804.34;5014859;28;20046;-75
2021/06/14 05:43:59;;;;;;;13.32;7.15;;;;;;;15.52;70.32;100801.34;5016507;28;20078;-78
2021/06/14 05:46:25;;;;;;;19.40;7.50;;;;;;;15.66;68.59;100814.66;5018563;28;20054;-75
2021/06/14 05:48:52;;;;;;;13.90;6.63;;;;;;;15.70;69.22;100810.75;5019315;28;20053;-75
2021/06/14 05:51:19;;;;;;;15.55;7.00;;;;;;;15.75;68.81;100816.69;5018059;28;20115;-76
2021/06/14 05:53:48;;;;;;;16.52;6.35;;;;;;;15.82;67.82;100817.09;5018242;28;20077;-78
2021/06/14 05:56:15;;;;;;;9.85;5.68;;;;;;;15.91;67.28;100814.72;5018376;28;20050;-76
2021/06/14 05:58:43;;;;;;;14.88;5.57;;;;;;;15.97;64.49;100822.38;5018232;28;20108;-78
2021/06/14 06:01:09;;;;;;;13.27;4.70;;;;;;;16.01;64.59;100822.03;5018010;28;20053;-76
2021/06/14 06:03:39;;;;;;;16.38;5.57;;;;;;;16.09;64.31;100824.16;5018204;28;20116;-78
2021/06/14 06:06:06;;;;;;;13.13;5.05;;;;;;;16.15;64.89;100821.00;5017754;28;20053;-78
2021/06/14 06:08:32;;;;;;;9.98;4.53;;;;;;;16.25;63.26;100820.31;5017767;28;20053;-75
2021/06/14 06:11:01;;;;;;;8.70;4.70;;;;;;;16.29;61.69;100821.81;5017547;28;20057;-76
2021/06/14 06:13:28;;;;;;;13.65;4.43;;;;;;;16.36;62.33;100823.06;5017688;28;20100;-75
2021/06/14 06:15:54;;;;;;;15.55;4.78;;;;;;;16.41;61.78;100820.03;5017684;28;20432;-75
2021/06/14 06:18:21;;;;;;;10.45;4.40;;;;;;;16.38;62.24;100806.78;5017500;28;20056;-74
2021/06/14 06:20:48;;;;;;;11.70;4.80;;;;;;;16.47;60.67;100816.00;5025555;28;20038;-79
2021/06/14 06:23:15;;;;;;;11.70;4.72;;;;;;;16.63;60.17;100816.56;5025624;28;20391;-79
2021/06/14 06:25:44;;;;;;;12.60;4.68;;;;;;;16.74;60.39;100817.56;5019724;28;20397;-78
2021/06/14 06:28:11;;;;;;;9.65;5.50;;;;;;;16.85;60.55;100814.91;5027552;28;20050;-78
2021/06/14 06:30:38;;;;;;;13.23;4.68;;;;;;;16.97;60.97;100815.78;5031993;28;20053;-81
2021/06/14 06:33:08;;;;;;;8.88;4.13;;;;;;;17.03;60.86;100830.66;5015468;28;20447;-79
2021/06/14 06:35:36;;;;;;;10.15;4.80;;;;;;;17.08;60.53;100826.66;5028286;28;20054;-79
2021/06/14 06:38:03;;;;;;;10.85;4.63;;;;;;;17.14;59.36;100819.91;5030075;28;20050;-84
2021/06/14 06:40:30;;;;;;;9.35;4.63;;;;;;;17.19;58.73;100828.50;5025442;28;20050;-80
2021/06/14 06:42:57;;;;;;;10.45;4.75;;;;;;;17.29;58.92;100833.16;5024521;28;20045;-73
2021/06/14 06:45:25;;;;;;;10.82;3.83;;;;;;;17.34;58.06;100828.25;5024234;28;20435;-74
2021/06/14 06:47:53;;;;;;;11.32;4.50;;;;;;;17.32;58.74;100827.53;5026787;28;20049;-74
2021/06/14 06:50:20;;;;;;;9.32;4.18;;;;;;;17.46;57.50;100829.13;5024877;28;20088;-72
2021/06/14 06:52:47;;;;;;;8.60;4.35;;;;;;;17.51;57.92;100832.31;5026314;28;20057;-72
2021/06/14 06:55:15;;;;;;;10.30;4.43;;;;;;;17.53;58.59;100838.44;5026638;28;20100;-74
2021/06/14 06:57:43;;;;;;;8.48;4.75;;;;;;;17.63;59.19;100833.16;5024963;28;20506;-78
2021/06/14 07:00:13;;;;;;;7.72;4.28;;;;;;;17.66;58.77;100827.53;5028901;28;20084;-79
2021/06/14 07:02:40;;;;;;;11.70;4.38;;;;;;;17.78;57.48;100831.91;5029288;28;20054;-74
2021/06/14 07:05:26;;;;;;;13.70;4.75;;;;;;;17.85;57.29;100815.22;5027117;28;20438;-75
2021/06/14 07:07:53;;;;;;;11.45;4.30;;;;;;;17.97;57.39;100819.63;5012369;28;20069;-75
2021/06/14 07:10:20;;;;;;;7.13;3.80;;;;;;;17.97;57.47;100819.63;5029224;28;20332;-75
2021/06/14 07:12:55;;;;;;;7.82;3.72;;;;;;;18.02;57.69;100822.81;5026525;28;20374;-76
2021/06/14 07:15:22;;;;;;;8.80;3.80;;;;;;;18.12;57.08;100816.66;5027380;28;20071;-75
2021/06/14 07:17:49;;;;;;;10.95;4.18;;;;;;;18.16;56.95;100808.22;5025708;28;20053;-74
2021/06/14 07:20:16;;;;;;;8.25;3.70;;;;;;;18.13;56.65;100788.66;5025370;28;20049;-74
2021/06/14 07:22:43;;;;;;;9.85;3.78;;;;;;;18.34;56.37;100812.22;5024759;28;20046;-78
2021/06/14 07:25:11;;;;;;;8.40;3.80;;;;;;;18.38;56.54;100805.53;5025218;28;20470;-79
2021/06/14 07:27:39;;;;;;;11.60;4.13;;;;;;;18.48;57.09;100800.22;5026514;28;20045;-81
2021/06/14 07:30:20;;;;;;;10.95;3.75;;;;;;;18.57;57.51;100803.00;5021938;28;20045;-77
2021/06/14 07:32:47;;;;;;;9.60;4.00;;;;;;;18.78;56.85;100795.91;5025258;28;20458;-78
2021/06/14 07:35:13;;;;;;;8.80;3.78;;;;;;;18.78;56.81;100793.19;5026454;28;20053;-78
2021/06/14 07:37:40;;;;;;;13.43;4.50;;;;;;;18.97;57.57;100805.97;5023459;28;20053;-77
2021/06/14 07:40:08;;;;;;;8.73;3.97;;;;;;;19.10;57.63;100795.84;5018691;28;20085;-77
2021/06/14 07:42:36;;;;;;;10.05;3.65;;;;;;;19.31;55.27;100794.94;5021393;28;20451;-78
2021/06/14 07:45:04;;;;;;;8.60;3.53;;;;;;;19.30;55.50;100787.81;5029410;28;20049;-77
2021/06/14 07:47:30;;;;;;;7.70;3.40;;;;;;;19.37;53.50;100786.28;5025812;28;20042;-77
2021/06/14 07:49:57;;;;;;;9.40;3.25;;;;;;;19.49;53.90;100781.63;5025637;28;20075;-78
2021/06/14 07:52:24;;;;;;;11.13;3.33;;;;;;;19.54;53.92;100784.78;5027279;28;20054;-77
2021/06/14 07:54:53;;;;;;;5.70;2.70;;;;;;;19.85;52.78;100788.41;5024612;28;20056;-78
2021/06/14 07:57:19;;;;;;;6.80;2.88;;;;;;;19.83;53.23;100777.72;5022463;28;20053;-78
2021/06/14 07:59:46;;;;;;;6.85;3.45;;;;;;;20.01;52.07;100787.91;5021048;28;20119;-76
2021/06/14 08:02:13;;;;;;;5.13;3.00;;;;;;;20.06;52.36;100782.94;5025125;28;20087;-78
2021/06/14 08:04:39;;;;;;;6.35;3.30;;;;;;;20.08;51.95;100772.81;5023334;28;20716;-79
2021/06/14 08:07:06;;;;;;;7.57;3.17;;;;;;;20.16;51.74;100777.53;5024121;28;20049;-78
2021/06/14 08:09:33;;;;;;;9.07;3.20;;;;;;;20.31;50.23;100772.53;5040331;28;20053;-79
2021/06/14 08:12:03;;;;;;;8.07;3.20;;;;;;;20.22;51.10;100758.84;5024110;28;20058;-79
2021/06/14 08:14:30;;;;;;;7.13;3.50;;;;;;;20.35;50.96;100773.97;5024587;28;20046;-79
2021/06/14 08:16:57;;;;;;;11.20;3.80;;;;;;;20.44;51.55;100751.41;5024907;28;20092;-81
2021/06/14 08:27:20;;;;;;;6.72;3.00;;;;;;;20.86;49.38;100738.53;5017149;28;20061;-79
2021/06/14 08:29:46;;;;;;;5.30;2.60;;;;;;;20.98;49.06;100748.19;5006276;28;20053;-78
2021/06/14 08:32:13;;;;;;;7.60;3.45;;;;;;;21.02;49.49;100743.31;5025009;28;20100;-79
2021/06/14 08:34:40;;;;;;;11.93;3.33;;;;;;;21.15;49.89;100753.88;5025826;28;20105;-79
2021/06/14 08:37:06;;;;;;;9.65;3.47;;;;;;;21.19;50.61;100738.97;5024519;28;20046;-78
2021/06/14 08:39:33;;;;;;;9.63;3.33;;;;;;;21.30;50.02;100744.22;5017060;28;20427;-79
2021/06/14 08:42:03;;;;;;;7.13;3.33;;;;;;;21.32;49.53;100732.34;5023118;28;20053;-78
2021/06/14 08:44:32;;;;;;;9.32;3.33;;;;;;;21.47;47.94;100746.28;5025663;28;20064;-77
2021/06/14 08:47:03;;;;;;;6.70;2.90;;;;;;;21.47;47.87;100747.16;5023055;28;20057;-78
2021/06/14 08:49:32;;;;;;;9.40;3.20;;;;;;;21.52;48.50;100743.97;5025154;28;20053;-75
2021/06/14 08:52:00;;;;;;;;;;;;;;;21.63;45.56;100740.19;5029031;28;20073;-76
2021/06/14 08:54:27;;;;;;;7.25;2.60;;;;;;;21.73;48.38;100730.13;5022760;28;19971;-79
2021/06/14 08:56:55;;;;;;;7.80;3.20;;;;;;;21.87;44.20;100730.63;5022944;28;20347;-76
2021/06/14 08:59:22;;;;;;;10.85;3.20;;;;;;;22.04;44.12;100734.34;5024015;28;20333;-77
2021/06/14 09:01:50;;;;;;;6.40;3.00;;;;;;;22.01;44.82;100719.22;5022863;28;20119;-80
2021/06/14 09:04:18;;;;;;;9.38;3.30;;;;;;;22.05;44.26;100734.22;5023601;28;20053;-75
2021/06/14 09:06:46;;;;;;;6.75;2.90;;;;;;;21.97;44.65;100728.69;5025164;28;20062;-80
2021/06/14 09:09:13;;;;;;;7.28;2.90;;;;;;;22.09;44.15;100741.06;5023060;28;20041;-77
2021/06/14 09:12:02;;;;;;;7.45;2.92;;;;;;;22.11;43.90;100736.31;5028227;28;20049;-75
2021/06/14 09:14:32;;;;;;;7.90;2.90;;;;;;;22.28;44.92;100731.00;5023506;28;20042;-77
2021/06/14 09:17:03;;;;;;;6.25;2.97;;;;;;;22.58;44.35;100720.75;5026615;28;20104;-75
2021/06/14 09:19:40;;;;;;;7.53;3.17;;;;;;;22.69;44.82;100721.47;5026771;28;20095;-77
2021/06/14 09:22:16;;;;;;;11.50;3.25;;;;;;;22.70;45.51;100706.91;5028865;28;20339;-76
2021/06/14 09:25:09;;;;;;;10.05;3.67;;;;;;;22.86;46.98;100712.41;5026558;28;20056;-75
2021/06/14 09:27:39;;;;;;;7.00;3.30;;;;;;;23.04;44.31;100703.34;5030787;28;20064;-76
2021/06/14 09:30:16;;;;;;;8.18;3.90;;;;;;;23.07;44.53;100700.28;5027486;28;20096;-77
2021/06/14 09:32:56;;;;;;;10.32;3.38;;;;;;;22.95;43.39;100672.50;5027075;28;20442;-77
2021/06/14 09:35:25;;;;;;;4.97;2.65;;;;;;;23.11;45.09;100704.41;5030633;28;20061;-77
2021/06/14 09:38:05;;;;;;;6.35;3.15;;;;;;;23.23;45.43;100704.09;5024238;28;20104;-76
2021/06/14 09:40:52;;;;;;;8.45;3.33;;;;;;;23.33;45.72;100704.84;5025970;28;20054;-76
2021/06/14 09:43:28;;;;;;;7.80;3.55;;;;;;;23.28;45.42;100688.09;5029111;28;20050;-77
2021/06/14 09:45:57;;;;;;;8.27;3.15;;;;;;;23.58;46.32;100696.72;5026497;28;20053;-78
2021/06/14 09:48:26;;;;;;;8.07;3.42;;;;;;;23.70;45.42;100695.41;5030158;28;20053;-76
2021/06/14 09:50:55;;;;;;;11.45;3.60;;;;;;;23.83;45.02;100691.34;5026379;28;20383;-76
2021/06/14 09:53:35;;;;;;;8.07;3.72;;;;;;;23.78;43.48;100686.41;5027297;28;20068;-77
2021/06/14 09:56:14;;;;;;;7.35;3.53;;;;;;;23.94;43.61;100695.63;5022655;28;20076;-75
2021/06/14 09:58:45;;;;;;;6.80;3.20;;;;;;;24.05;44.75;100694.44;5028146;28;20053;-76
2021/06/14 10:01:12;;;;;;;12.48;3.15;;;;;;;24.08;43.93;100677.78;5026622;28;20127;-75
2021/06/14 10:03:45;;;;;;;6.10;3.50;;;;;;;24.32;42.68;100686.97;5024339;28;20458;-75
2021/06/14 10:06:26;;;;;;;9.13;3.15;;;;;;;24.23;41.94;100688.81;5027614;28;20045;-75
2021/06/14 10:08:52;;;;;;;4.88;3.08;;;;;;;24.32;41.73;100681.50;5025600;28;20046;-77
2021/06/14 10:11:19;;;;;;;6.47;3.20;;;;;;;24.51;41.80;100681.13;5020608;28;20435;-75
2021/06/14 10:13:48;;;;;;;9.48;2.80;;;;;;;24.67;40.71;100679.41;5016250;28;20050;-77
2021/06/14 10:16:22;;;;;;;8.18;2.78;;;;;;;24.83;40.05;100680.44;5017822;28;20088;-76
2021/06/14 10:18:58;;;;;;;7.05;2.70;;;;;;;25.06;40.59;100680.53;5017481;28;20141;-76
2021/06/14 10:21:35;;;;;;;7.07;2.83;;;;;;;25.15;40.09;100682.19;5017781;28;20137;-76
2021/06/14 10:24:07;;;;;;;10.45;2.85;;;;;;;25.09;39.12;100683.75;5034451;28;20053;-75
2021/06/14 10:26:36;;;;;;;8.30;2.92;;;;;;;25.23;39.87;100686.78;5037146;28;20056;-76
2021/06/14 10:29:07;;;;;;;6.45;2.95;;;;;;;25.35;39.52;100685.34;5037086;28;20099;-75
2021/06/14 10:31:38;;;;;;;7.10;3.08;;;;;;;25.36;40.05;100675.25;5037396;28;20049;-77
2021/06/14 10:34:06;;;;;;;9.88;2.83;;;;;;;25.46;39.87;100673.16;5037137;28;20478;-76
2021/06/14 10:36:33;;;;;;;8.07;3.08;;;;;;;25.47;38.53;100658.47;5037032;28;20054;-78
2021/06/14 10:39:05;;;;;;;9.05;3.33;;;;;;;25.56;38.96;100666.63;5037144;28;20060;-78
2021/06/14 10:41:31;;;;;;;8.50;3.22;;;;;;;25.76;39.62;100662.41;5036413;28;20049;-78
2021/06/14 10:43:58;;;;;;;7.70;2.95;;;;;;;25.78;38.68;100664.97;5037626;28;20053;-78
2021/06/14 10:46:26;;;;;;;7.07;2.88;;;;;;;25.82;37.51;100666.28;5037984;28;20119;-77
2021/06/14 10:48:56;;;;;;;8.50;3.13;;;;;;;25.93;36.17;100672.38;5038658;28;20053;-78
2021/06/14 10:51:23;;;;;;;9.52;3.08;;;;;;;25.86;37.44;100658.56;5037616;28;20443;-78
2021/06/14 10:53:51;;;;;;;7.43;3.15;;;;;;;26.08;36.96;100658.75;5036905;28;20053;-77
2021/06/14 10:56:23;;;;;;;6.55;2.80;;;;;;;26.11;36.46;100655.63;5036836;28;20438;-77
2021/06/14 10:59:01;;;;;;;9.25;3.20;;;;;;;26.14;36.54;100664.31;5037018;28;20049;-78
2021/06/14 11:01:39;;;;;;;5.53;2.72;;;;;;;26.10;35.53;100671.19;5036168;28;20116;-79
2021/06/14 11:04:07;;;;;;;8.07;2.50;;;;;;;26.21;37.13;100672.66;5036945;28;20452;-79
2021/06/14 11:06:36;;;;;;;9.50;3.05;;;;;;;26.43;36.15;100662.69;5036747;28;20054;-78
2021/06/14 11:09:12;;;;;;;7.57;3.28;;;;;;;26.78;35.67;100655.84;5036005;28;20461;-78
2021/06/14 11:11:54;;;;;;;6.63;2.50;;;;;;;26.37;34.74;100644.28;5035396;28;20128;-78
2021/06/14 11:14:43;;;;;;;6.65;2.75;;;;;;;26.60;35.49;100657.06;5037104;28;20458;-78
2021/06/14 11:17:22;;;;;;;8.75;2.70;;;;;;;26.90;35.28;100651.63;5037099;28;20057;-78
2021/06/14 11:20:08;;;;;;;6.90;2.65;;;;;;;26.83;34.75;100651.50;5032169;28;20065;-78
2021/06/14 11:22:49;;;;;;;9.38;2.80;;;;;;;26.89;35.89;100641.66;5016701;28;20045;-78
2021/06/14 11:25:23;;;;;;;7.72;2.53;;;;;;;27.01;34.82;100655.75;5016545;28;20133;-77
2021/06/14 11:27:51;;;;;;;5.10;2.90;;;;;;;27.18;33.52;100639.13;5016881;28;20045;-78
2021/06/14 11:30:36;;;;;;;9.77;2.90;;;;;;;27.10;34.62;100640.06;5016542;28;20108;-76
2021/06/14 11:33:04;;;;;;;6.75;2.97;;;;;;;27.42;35.59;100642.53;5016506;28;20085;-77
2021/06/14 11:35:33;;;;;;;5.82;3.53;;;;;;;27.63;34.17;100644.50;5016832;28;20061;-78
2021/06/14 11:38:03;;;;;;;7.40;2.65;;;;;;;27.75;33.61;100637.47;5023960;28;20627;-76
2021/06/14 11:40:30;;;;;;;12.70;3.40;;;;;;;27.71;32.95;100641.63;5026467;28;20112;-77